createdAt,value
2019-02-06T00:00:10.298Z,22.50
2019-02-06T00:01:10.281Z,22.20
2019-02-06T00:02:10.243Z,23.50
2019-02-06T00:03:10.224Z,24.10
2019-02-06T00:04:10.189Z,22.50
2019-02-06T00:05:14.309Z,23.90
2019-02-06T00:06:10.139Z,23.00
2019-02-06T00:07:10.133Z,22.20
2019-02-06T00:08:10.081Z,23.40
2019-02-06T00:09:10.056Z,23.10
2019-02-06T00:10:10.028Z,23.00
2019-02-06T00:11:10.004Z,23.00
2019-02-06T00:12:09.981Z,24.80
2019-02-06T00:13:09.958Z,23.30
2019-02-06T00:14:09.965Z,23.20
2019-02-06T00:15:09.895Z,23.20
2019-02-06T00:16:09.891Z,22.40
2019-02-06T00:17:09.930Z,22.90
2019-02-06T00:18:09.882Z,23.10
2019-02-06T00:19:09.799Z,23.50
2019-02-06T00:20:09.771Z,23.20
2019-02-06T00:21:09.734Z,24.00
2019-02-06T00:22:09.718Z,22.10
2019-02-06T00:23:09.681Z,21.70
2019-02-06T00:24:09.651Z,22.90
2019-02-06T00:25:09.686Z,22.50
2019-02-06T00:26:09.607Z,22.90
2019-02-06T00:27:09.586Z,22.80
2019-02-06T00:28:09.545Z,22.00
2019-02-06T00:29:09.518Z,22.90
2019-02-06T00:30:09.498Z,21.50
2019-02-06T00:31:09.463Z,22.30
2019-02-06T00:32:09.458Z,22.10
2019-02-06T00:33:09.415Z,22.20
2019-02-06T00:34:09.396Z,21.70
2019-02-06T00:35:09.363Z,21.10
2019-02-06T00:36:09.340Z,21.40
2019-02-06T00:37:09.311Z,21.50
2019-02-06T00:38:09.281Z,21.80
2019-02-06T00:39:09.251Z,21.50
2019-02-06T00:40:09.223Z,21.80
2019-02-06T00:41:09.198Z,21.70
2019-02-06T00:42:09.169Z,22.10
2019-02-06T00:43:09.143Z,21.40
2019-02-06T00:44:09.125Z,21.10
2019-02-06T00:45:09.090Z,22.40
2019-02-06T00:46:09.066Z,21.60
2019-02-06T00:47:09.040Z,21.90
2019-02-06T00:48:09.131Z,21.70
2019-02-06T00:49:08.999Z,21.60
2019-02-06T00:50:08.956Z,21.10
2019-02-06T00:51:08.928Z,19.30
2019-02-06T00:52:08.909Z,22.30
2019-02-06T00:53:08.891Z,20.50
2019-02-06T00:54:08.850Z,20.80
2019-02-06T00:55:08.822Z,21.10
2019-02-06T00:56:08.804Z,22.90
2019-02-06T00:57:08.768Z,21.90
2019-02-06T00:58:08.743Z,21.60
2019-02-06T00:59:08.719Z,22.10
2019-02-06T01:00:08.687Z,22.00
2019-02-06T01:01:08.660Z,23.10
2019-02-06T01:02:08.653Z,21.80
2019-02-06T01:03:08.619Z,21.20
2019-02-06T01:04:08.731Z,22.00
2019-02-06T01:05:08.555Z,22.50
2019-02-06T01:06:08.533Z,22.20
2019-02-06T01:07:08.501Z,21.80
2019-02-06T01:08:08.480Z,21.90
2019-02-06T01:09:08.449Z,21.70
2019-02-06T01:10:08.418Z,21.40
2019-02-06T01:11:08.469Z,21.20
2019-02-06T01:12:08.377Z,22.90
2019-02-06T01:13:08.339Z,22.60
2019-02-06T01:14:08.313Z,22.20
2019-02-06T01:15:08.283Z,23.00
2019-02-06T01:16:08.257Z,21.30
2019-02-06T01:17:08.233Z,22.10
2019-02-06T01:18:08.211Z,22.10
2019-02-06T01:19:08.183Z,21.80
2019-02-06T01:20:08.150Z,20.70
2019-02-06T01:21:08.123Z,21.50
2019-02-06T01:22:08.105Z,22.60
2019-02-06T01:23:08.067Z,22.50
2019-02-06T01:24:08.042Z,21.20
2019-02-06T01:25:08.014Z,21.70
2019-02-06T01:26:07.987Z,21.70
2019-02-06T01:27:07.968Z,21.10
2019-02-06T01:28:07.933Z,21.60
2019-02-06T01:29:07.914Z,22.40
2019-02-06T01:30:07.881Z,21.10
2019-02-06T01:31:07.851Z,21.40
2019-02-06T01:32:07.828Z,21.20
2019-02-06T01:33:07.800Z,20.80
2019-02-06T01:34:07.775Z,21.60
2019-02-06T01:35:07.743Z,21.70
2019-02-06T01:36:07.730Z,20.50
2019-02-06T01:37:07.820Z,20.50
2019-02-06T01:38:07.667Z,21.40
2019-02-06T01:39:07.637Z,21.70
2019-02-06T01:40:07.611Z,22.00
2019-02-06T01:41:07.589Z,21.30
2019-02-06T01:42:07.565Z,22.00
2019-02-06T01:43:07.530Z,21.00
2019-02-06T01:44:07.502Z,20.90
2019-02-06T01:45:07.483Z,21.00
2019-02-06T01:46:07.451Z,20.20
2019-02-06T01:47:07.421Z,19.60
2019-02-06T01:48:07.413Z,21.30
2019-02-06T01:49:07.368Z,19.90
2019-02-06T01:50:07.338Z,20.00
2019-02-06T01:51:07.323Z,20.10
2019-02-06T01:52:07.284Z,19.10
2019-02-06T01:53:07.258Z,20.60
2019-02-06T01:54:07.238Z,19.80
2019-02-06T01:55:07.202Z,20.40
2019-02-06T01:56:07.187Z,20.40
2019-02-06T01:57:07.148Z,20.60
2019-02-06T01:58:07.122Z,20.20
2019-02-06T01:59:07.094Z,20.50
2019-02-06T02:00:07.068Z,20.50
2019-02-06T02:01:07.046Z,20.40
2019-02-06T02:02:07.027Z,19.90
2019-02-06T02:03:06.985Z,19.30
2019-02-06T02:04:06.965Z,20.40
2019-02-06T02:05:06.952Z,20.70
2019-02-06T02:06:06.905Z,19.90
2019-02-06T02:07:06.909Z,20.10
2019-02-06T02:08:06.865Z,20.10
2019-02-06T02:09:06.823Z,20.00
2019-02-06T02:10:06.797Z,20.10
2019-02-06T02:11:06.768Z,20.80
2019-02-06T02:12:06.741Z,20.20
2019-02-06T02:13:06.720Z,19.80
2019-02-06T02:14:06.687Z,20.40
2019-02-06T02:15:06.658Z,20.30
2019-02-06T02:16:06.637Z,20.20
2019-02-06T02:17:06.604Z,20.00
2019-02-06T02:18:06.579Z,19.40
2019-02-06T02:19:06.550Z,20.10
2019-02-06T02:20:06.524Z,18.40
2019-02-06T02:21:06.500Z,19.20
2019-02-06T02:22:06.473Z,19.20
2019-02-06T02:23:06.476Z,18.80
2019-02-06T02:24:06.420Z,18.90
2019-02-06T02:25:06.389Z,18.50
2019-02-06T02:26:06.362Z,19.10
2019-02-06T02:27:06.347Z,18.10
2019-02-06T02:28:06.308Z,19.50
2019-02-06T02:29:06.282Z,19.10
2019-02-06T02:30:06.260Z,17.70
2019-02-06T02:31:06.226Z,18.40
2019-02-06T02:32:06.204Z,18.40
2019-02-06T02:33:06.178Z,18.00
2019-02-06T02:34:06.145Z,18.10
2019-02-06T02:35:06.117Z,18.20
2019-02-06T02:36:14.844Z,18.20
2019-02-06T02:37:06.064Z,18.50
2019-02-06T02:38:06.051Z,17.60
2019-02-06T02:39:06.010Z,17.60
2019-02-06T02:40:05.983Z,16.60
2019-02-06T02:41:05.959Z,17.70
2019-02-06T02:42:05.942Z,16.80
2019-02-06T02:43:05.901Z,16.50
2019-02-06T02:44:05.879Z,16.80
2019-02-06T02:45:05.856Z,17.10
2019-02-06T02:46:05.819Z,16.50
2019-02-06T02:47:05.806Z,17.70
2019-02-06T02:48:05.767Z,17.20
2019-02-06T02:49:05.749Z,17.30
2019-02-06T02:50:05.714Z,17.20
2019-02-06T02:51:05.700Z,16.10
2019-02-06T02:52:05.667Z,16.00
2019-02-06T02:53:05.633Z,16.70
2019-02-06T02:54:05.627Z,16.80
2019-02-06T02:55:05.585Z,16.50
2019-02-06T02:56:05.569Z,15.90
2019-02-06T02:57:05.531Z,16.30
2019-02-06T02:58:05.504Z,16.60
2019-02-06T02:59:05.468Z,16.20
2019-02-06T03:00:05.441Z,16.80
2019-02-06T03:01:05.416Z,16.00
2019-02-06T03:02:05.399Z,16.00
2019-02-06T03:03:05.369Z,15.30
2019-02-06T03:04:05.334Z,14.60
2019-02-06T03:05:05.311Z,15.00
2019-02-06T03:06:05.279Z,15.30
2019-02-06T03:07:05.254Z,15.40
2019-02-06T03:08:05.224Z,15.10
2019-02-06T03:09:05.201Z,15.30
2019-02-06T03:10:05.182Z,15.60
2019-02-06T03:11:05.156Z,15.80
2019-02-06T03:12:05.133Z,14.20
2019-02-06T03:13:05.090Z,14.20
2019-02-06T03:14:05.063Z,14.80
2019-02-06T03:15:05.035Z,14.90
2019-02-06T03:16:05.007Z,14.20
2019-02-06T03:17:04.981Z,13.90
2019-02-06T03:18:04.960Z,14.70
2019-02-06T03:19:04.926Z,14.90
2019-02-06T03:20:04.904Z,14.80
2019-02-06T03:21:04.875Z,13.90
2019-02-06T03:22:04.845Z,14.30
2019-02-06T03:23:04.820Z,13.60
2019-02-06T03:24:04.790Z,14.10
2019-02-06T03:25:04.765Z,13.80
2019-02-06T03:26:04.737Z,13.60
2019-02-06T03:27:04.707Z,12.90
2019-02-06T03:28:04.679Z,13.50
2019-02-06T03:29:04.654Z,13.60
2019-02-06T03:30:04.628Z,13.30
2019-02-06T03:31:04.598Z,12.70
2019-02-06T03:32:04.573Z,13.30
2019-02-06T03:33:04.549Z,12.70
2019-02-06T03:34:05.112Z,13.10
2019-02-06T03:35:04.492Z,12.60
2019-02-06T03:36:04.462Z,12.60
2019-02-06T03:37:04.433Z,12.50
2019-02-06T03:38:04.406Z,12.50
2019-02-06T03:39:04.501Z,12.00
2019-02-06T03:40:04.352Z,12.70
2019-02-06T03:41:04.323Z,12.60
2019-02-06T03:42:04.297Z,13.00
2019-02-06T03:43:04.270Z,12.40
2019-02-06T03:44:04.241Z,12.80
2019-02-06T03:45:04.214Z,12.90
2019-02-06T03:46:04.189Z,12.60
2019-02-06T03:47:04.158Z,13.20
2019-02-06T03:48:04.134Z,12.70
2019-02-06T03:49:04.105Z,12.00
2019-02-06T03:50:04.079Z,12.60
2019-02-06T03:51:04.048Z,12.50
2019-02-06T03:52:04.022Z,13.00
2019-02-06T03:53:03.998Z,12.70
2019-02-06T03:54:03.968Z,12.90
2019-02-06T03:55:03.945Z,13.10
2019-02-06T03:56:03.911Z,12.60
2019-02-06T03:57:03.884Z,12.80
2019-02-06T03:58:03.856Z,11.70
2019-02-06T03:59:03.829Z,12.40
2019-02-06T04:00:03.808Z,12.10
2019-02-06T04:01:03.778Z,12.20
2019-02-06T04:02:03.755Z,12.80
2019-02-06T04:03:03.717Z,12.10
2019-02-06T04:04:03.692Z,12.00
2019-02-06T04:05:03.671Z,11.90
2019-02-06T04:06:03.635Z,11.80
2019-02-06T04:07:03.616Z,12.10
2019-02-06T04:08:03.588Z,11.40
2019-02-06T04:09:03.552Z,11.40
2019-02-06T04:10:03.526Z,12.10
2019-02-06T04:11:03.498Z,11.30
2019-02-06T04:12:03.470Z,11.60
2019-02-06T04:13:03.442Z,11.90
2019-02-06T04:14:03.435Z,11.50
2019-02-06T04:15:03.393Z,11.20
2019-02-06T04:16:03.479Z,11.30
2019-02-06T04:17:03.340Z,11.80
2019-02-06T04:18:03.304Z,11.60
2019-02-06T04:19:03.275Z,11.80
2019-02-06T04:20:03.257Z,11.30
2019-02-06T04:21:03.234Z,11.80
2019-02-06T04:22:03.195Z,10.80
2019-02-06T04:23:03.165Z,10.80
2019-02-06T04:24:03.145Z,11.70
2019-02-06T04:25:03.112Z,11.00
2019-02-06T04:26:03.086Z,10.80
2019-02-06T04:27:03.060Z,10.90
2019-02-06T04:28:03.029Z,10.80
2019-02-06T04:29:03.004Z,10.90
2019-02-06T04:30:02.977Z,10.70
2019-02-06T04:31:02.948Z,10.50
2019-02-06T04:32:02.921Z,11.10
2019-02-06T04:33:02.895Z,10.70
2019-02-06T04:34:02.866Z,10.60
2019-02-06T04:35:02.845Z,10.10
2019-02-06T04:36:02.821Z,9.90
2019-02-06T04:37:06.794Z,10.60
2019-02-06T04:38:02.764Z,10.60
2019-02-06T04:39:02.729Z,9.90
2019-02-06T04:40:02.703Z,10.30
2019-02-06T04:41:02.677Z,10.50
2019-02-06T04:42:02.652Z,10.30
2019-02-06T04:43:02.629Z,9.70
2019-02-06T04:44:02.595Z,10.70
2019-02-06T04:45:02.585Z,10.60
2019-02-06T04:46:02.542Z,10.10
2019-02-06T04:47:02.512Z,10.50
2019-02-06T04:48:02.487Z,10.80
2019-02-06T04:49:02.458Z,10.40
2019-02-06T04:50:02.435Z,9.90
2019-02-06T04:51:02.404Z,9.50
2019-02-06T04:52:02.383Z,9.90
2019-02-06T04:53:02.358Z,9.50
2019-02-06T04:54:02.321Z,10.40
2019-02-06T04:55:02.302Z,9.50
2019-02-06T04:56:02.272Z,10.40
2019-02-06T04:57:02.253Z,10.10
2019-02-06T04:58:02.216Z,9.90
2019-02-06T04:59:02.184Z,9.90
2019-02-06T05:00:02.159Z,10.20
2019-02-06T05:01:02.135Z,10.10
2019-02-06T05:02:02.107Z,9.30
2019-02-06T05:03:02.074Z,10.10
2019-02-06T05:04:02.057Z,9.70
2019-02-06T05:05:02.048Z,9.90
2019-02-06T05:06:01.993Z,10.10
2019-02-06T05:07:01.966Z,10.20
2019-02-06T05:08:01.941Z,9.90
2019-02-06T05:09:01.912Z,9.60
2019-02-06T05:10:01.900Z,10.00
2019-02-06T05:11:01.863Z,9.60
2019-02-06T05:12:01.830Z,9.80
2019-02-06T05:13:01.801Z,10.10
2019-02-06T05:14:01.776Z,9.30
2019-02-06T05:15:01.748Z,9.60
2019-02-06T05:16:01.720Z,10.10
2019-02-06T05:17:01.692Z,9.60
2019-02-06T05:18:01.724Z,9.80
2019-02-06T05:19:01.639Z,9.80
2019-02-06T05:20:01.612Z,10.20
2019-02-06T05:21:01.586Z,10.00
2019-02-06T05:22:01.560Z,9.60
2019-02-06T05:23:01.533Z,9.50
2019-02-06T05:24:01.502Z,10.30
2019-02-06T05:25:01.477Z,9.60
2019-02-06T05:26:01.448Z,10.20
2019-02-06T05:27:01.419Z,9.70
2019-02-06T05:28:01.395Z,9.70
2019-02-06T05:29:01.374Z,9.50
2019-02-06T05:30:01.341Z,9.50
2019-02-06T05:31:01.311Z,9.70
2019-02-06T05:32:01.290Z,9.70
2019-02-06T05:33:01.262Z,9.50
2019-02-06T05:34:01.233Z,9.80
2019-02-06T05:35:01.202Z,10.10
2019-02-06T05:36:01.176Z,9.60
2019-02-06T05:37:01.159Z,9.20
2019-02-06T05:38:01.122Z,9.40
2019-02-06T05:39:01.126Z,9.10
2019-02-06T05:40:01.068Z,9.00
2019-02-06T05:41:01.043Z,9.00
2019-02-06T05:42:01.011Z,9.40
2019-02-06T05:43:00.987Z,8.80
2019-02-06T05:44:00.964Z,8.80
2019-02-06T05:45:00.931Z,9.00
2019-02-06T05:46:00.903Z,9.00
2019-02-06T05:47:00.878Z,8.80
2019-02-06T05:48:00.847Z,8.80
2019-02-06T05:49:00.826Z,9.20
2019-02-06T05:50:00.861Z,9.10
2019-02-06T05:51:00.767Z,9.30
2019-02-06T05:52:00.738Z,9.10
2019-02-06T05:53:00.713Z,8.50
2019-02-06T05:54:00.710Z,9.00
2019-02-06T05:55:04.238Z,8.70
2019-02-06T05:56:00.635Z,9.50
2019-02-06T05:57:00.655Z,8.50
2019-02-06T05:58:00.580Z,9.00
2019-02-06T05:59:00.551Z,9.60
2019-02-06T06:00:00.535Z,9.40
2019-02-06T06:01:00.505Z,9.40
2019-02-06T06:02:00.474Z,9.10
2019-02-06T06:03:00.444Z,9.30
2019-02-06T06:04:00.440Z,9.70
2019-02-06T06:05:00.392Z,8.60
2019-02-06T06:06:00.362Z,8.80
2019-02-06T06:07:00.334Z,9.00
2019-02-06T06:08:00.326Z,8.60
2019-02-06T06:09:00.284Z,8.50
2019-02-06T06:10:00.259Z,7.60
2019-02-06T06:11:00.226Z,8.60
2019-02-06T06:12:00.204Z,9.20
2019-02-06T06:13:00.177Z,8.80
2019-02-06T06:14:00.150Z,8.60
2019-02-06T06:15:00.226Z,9.40
2019-02-06T06:16:00.102Z,8.70
2019-02-06T06:17:00.065Z,7.60
2019-02-06T06:18:00.036Z,8.20
2019-02-06T06:19:00.026Z,8.40
2019-02-06T06:19:59.990Z,8.40
2019-02-06T06:20:59.955Z,8.00
2019-02-06T06:21:59.927Z,8.20
2019-02-06T06:22:59.905Z,8.70
2019-02-06T06:23:59.874Z,7.90
2019-02-06T06:24:59.856Z,8.60
2019-02-06T06:25:59.828Z,8.30
2019-02-06T06:26:59.792Z,8.00
2019-02-06T06:27:59.818Z,8.40
2019-02-06T06:28:59.747Z,8.10
2019-02-06T06:29:59.714Z,8.10
2019-02-06T06:30:59.685Z,7.40
2019-02-06T06:31:59.656Z,8.20
2019-02-06T06:32:59.631Z,8.60
2019-02-06T06:33:59.605Z,8.10
2019-02-06T06:34:59.579Z,8.70
2019-02-06T06:35:59.556Z,8.60
2019-02-06T06:36:59.524Z,8.60
2019-02-06T06:38:02.884Z,8.70
2019-02-06T06:38:59.479Z,7.70
2019-02-06T06:39:59.445Z,8.40
2019-02-06T06:40:59.420Z,8.60
2019-02-06T06:41:59.400Z,8.70
2019-02-06T06:42:59.365Z,8.40
2019-02-06T06:43:59.335Z,8.00
2019-02-06T06:44:59.310Z,8.40
2019-02-06T06:45:59.287Z,8.50
2019-02-06T06:46:59.255Z,8.40
2019-02-06T06:47:59.240Z,9.20
2019-02-06T06:48:59.203Z,8.70
2019-02-06T06:49:59.177Z,8.10
2019-02-06T06:50:59.147Z,8.60
2019-02-06T06:51:59.123Z,7.50
2019-02-06T06:52:59.095Z,8.20
2019-02-06T06:53:59.087Z,8.10
2019-02-06T06:54:59.051Z,7.70
2019-02-06T06:55:59.014Z,8.10
2019-02-06T06:56:58.989Z,8.10
2019-02-06T06:57:58.962Z,8.30
2019-02-06T06:58:58.942Z,8.80
2019-02-06T06:59:58.915Z,8.20
2019-02-06T07:00:58.885Z,8.50
2019-02-06T07:01:58.863Z,8.40
2019-02-06T07:02:58.828Z,8.20
2019-02-06T07:03:58.800Z,8.30
2019-02-06T07:04:58.778Z,8.60
2019-02-06T07:05:58.753Z,8.70
2019-02-06T07:06:58.720Z,8.50
2019-02-06T07:08:09.222Z,8.70
2019-02-06T07:08:58.668Z,8.90
2019-02-06T07:09:58.640Z,8.90
2019-02-06T07:10:58.613Z,8.10
2019-02-06T07:11:58.586Z,8.50
2019-02-06T07:12:58.561Z,8.90
2019-02-06T07:13:58.535Z,8.60
2019-02-06T07:14:58.516Z,8.10
2019-02-06T07:16:00.368Z,8.70
2019-02-06T07:16:58.459Z,8.40
2019-02-06T07:17:58.443Z,7.90
2019-02-06T07:18:58.399Z,8.50
2019-02-06T07:19:58.374Z,8.50
2019-02-06T07:21:01.340Z,7.90
2019-02-06T07:21:58.327Z,8.40
2019-02-06T07:22:58.378Z,8.40
2019-02-06T07:23:58.268Z,8.30
2019-02-06T07:24:58.241Z,8.40
2019-02-06T07:25:58.213Z,8.40
2019-02-06T07:26:58.187Z,8.60
2019-02-06T07:27:58.160Z,9.10
2019-02-06T07:28:58.135Z,8.00
2019-02-06T07:29:58.224Z,8.90
2019-02-06T07:30:58.087Z,8.80
2019-02-06T07:31:58.053Z,9.00
2019-02-06T07:32:58.028Z,8.70
2019-02-06T07:33:58.007Z,7.90
2019-02-06T07:34:57.979Z,8.70
2019-02-06T07:35:57.951Z,7.70
2019-02-06T07:36:57.921Z,8.30
2019-02-06T07:37:57.900Z,8.40
2019-02-06T07:38:57.868Z,8.50
2019-02-06T07:39:57.842Z,8.50
2019-02-06T07:40:57.816Z,8.60
2019-02-06T07:41:57.788Z,8.30
2019-02-06T07:42:57.759Z,8.30
2019-02-06T07:43:57.736Z,7.90
2019-02-06T07:44:57.725Z,8.10
2019-02-06T07:45:57.683Z,7.40
2019-02-06T07:46:57.655Z,7.90
2019-02-06T07:47:57.635Z,8.30
2019-02-06T07:48:57.600Z,8.70
2019-02-06T07:49:57.583Z,8.50
2019-02-06T07:50:57.547Z,7.80
2019-02-06T07:51:57.530Z,8.50
2019-02-06T07:52:57.495Z,8.50
2019-02-06T07:53:57.468Z,8.10
2019-02-06T07:54:57.442Z,8.60
2019-02-06T07:55:57.418Z,8.30
2019-02-06T07:56:57.515Z,8.70
2019-02-06T07:57:57.366Z,8.70
2019-02-06T07:58:57.344Z,8.70
2019-02-06T07:59:57.308Z,8.20
2019-02-06T08:00:57.285Z,8.20
2019-02-06T08:01:57.270Z,8.60
2019-02-06T08:02:57.229Z,7.90
2019-02-06T08:03:57.205Z,8.20
2019-02-06T08:04:57.187Z,8.00
2019-02-06T08:05:57.157Z,8.70
2019-02-06T08:06:57.124Z,8.40
2019-02-06T08:07:57.099Z,8.00
2019-02-06T08:08:57.072Z,8.00
2019-02-06T08:09:57.061Z,8.60
2019-02-06T08:10:57.020Z,8.10
2019-02-06T08:11:56.994Z,8.30
2019-02-06T08:12:56.968Z,8.80
2019-02-06T08:13:56.965Z,8.10
2019-02-06T08:14:56.940Z,8.70
2019-02-06T08:15:56.890Z,8.10
2019-02-06T08:16:56.868Z,8.40
2019-02-06T08:17:56.838Z,8.40
2019-02-06T08:18:56.812Z,7.80
2019-02-06T08:19:56.788Z,7.70
2019-02-06T08:20:56.760Z,7.90
2019-02-06T08:21:56.743Z,7.70
2019-02-06T08:22:56.706Z,8.30
2019-02-06T08:23:56.682Z,7.40
2019-02-06T08:24:56.655Z,8.10
2019-02-06T08:25:56.630Z,8.00
2019-02-06T08:26:56.605Z,7.50
2019-02-06T08:27:56.579Z,7.60
2019-02-06T08:28:56.552Z,8.20
2019-02-06T08:29:56.527Z,8.30
2019-02-06T08:30:56.504Z,8.10
2019-02-06T08:31:56.485Z,8.30
2019-02-06T08:32:56.450Z,8.30
2019-02-06T08:33:56.424Z,8.10
2019-02-06T08:34:56.398Z,8.30
2019-02-06T08:35:56.371Z,8.40
2019-02-06T08:36:56.405Z,8.30
2019-02-06T08:37:56.329Z,8.70
2019-02-06T08:38:56.297Z,8.20
2019-02-06T08:39:56.270Z,7.60
2019-02-06T08:40:56.256Z,7.90
2019-02-06T08:41:56.220Z,8.10
2019-02-06T08:42:56.209Z,7.70
2019-02-06T08:43:56.167Z,8.10
2019-02-06T08:44:56.143Z,8.80
2019-02-06T08:45:56.121Z,7.90
2019-02-06T08:46:56.095Z,7.70
2019-02-06T08:47:56.066Z,8.00
2019-02-06T08:48:56.042Z,7.50
2019-02-06T08:49:56.016Z,7.70
2019-02-06T08:50:55.991Z,7.40
2019-02-06T08:51:55.967Z,7.60
2019-02-06T08:52:55.942Z,7.60
2019-02-06T08:53:55.933Z,7.70
2019-02-06T08:54:55.890Z,8.20
2019-02-06T08:55:55.890Z,8.70
2019-02-06T08:56:55.843Z,7.60
2019-02-06T08:57:55.815Z,8.30
2019-02-06T08:58:55.789Z,7.70
2019-02-06T08:59:55.767Z,8.10
2019-02-06T09:00:55.739Z,7.30
2019-02-06T09:01:55.715Z,8.10
2019-02-06T09:02:55.689Z,7.60
2019-02-06T09:03:55.673Z,7.90
2019-02-06T09:04:56.204Z,8.00
2019-02-06T09:05:55.625Z,8.30
2019-02-06T09:06:55.591Z,7.80
2019-02-06T09:07:55.575Z,8.30
2019-02-06T09:08:59.698Z,8.10
2019-02-06T09:09:55.626Z,7.90
2019-02-06T09:10:55.498Z,7.80
2019-02-06T09:11:55.465Z,8.00
2019-02-06T09:12:55.444Z,8.50
2019-02-06T09:13:55.417Z,8.10
2019-02-06T09:14:55.396Z,8.10
2019-02-06T09:15:55.368Z,8.80
2019-02-06T09:16:55.347Z,7.90
2019-02-06T09:17:55.318Z,7.80
2019-02-06T09:18:55.294Z,7.80
2019-02-06T09:19:55.270Z,8.50
2019-02-06T09:20:55.245Z,7.90
2019-02-06T09:21:55.221Z,7.80
2019-02-06T09:22:55.195Z,7.90
2019-02-06T09:23:55.171Z,8.40
2019-02-06T09:24:55.149Z,8.70
2019-02-06T09:25:57.418Z,8.00
2019-02-06T09:26:55.098Z,8.60
2019-02-06T09:27:55.074Z,8.50
2019-02-06T09:28:55.051Z,8.40
2019-02-06T09:29:55.028Z,8.10
2019-02-06T09:30:55.003Z,8.20
2019-02-06T09:31:54.985Z,8.40
2019-02-06T09:32:54.963Z,8.40
2019-02-06T09:33:54.931Z,8.50
2019-02-06T09:34:54.910Z,8.30
2019-02-06T09:35:54.880Z,8.80
2019-02-06T09:36:54.866Z,8.10
2019-02-06T09:37:54.834Z,8.70
2019-02-06T09:38:54.811Z,8.10
2019-02-06T09:39:54.785Z,8.10
2019-02-06T09:40:54.762Z,8.40
2019-02-06T09:41:54.745Z,8.40
2019-02-06T09:42:54.713Z,8.40
2019-02-06T09:43:54.690Z,8.60
2019-02-06T09:44:54.665Z,8.30
2019-02-06T09:45:56.955Z,7.80
2019-02-06T09:46:54.628Z,9.20
2019-02-06T09:47:54.596Z,7.90
2019-02-06T09:48:54.571Z,9.00
2019-02-06T09:49:54.548Z,9.10
2019-02-06T09:50:54.524Z,8.40
2019-02-06T09:51:54.524Z,9.00
2019-02-06T09:52:54.477Z,8.40
2019-02-06T09:53:54.454Z,8.30
2019-02-06T09:54:54.430Z,8.70
2019-02-06T09:55:54.427Z,8.50
2019-02-06T09:56:54.384Z,8.00
2019-02-06T09:57:54.369Z,8.80
2019-02-06T09:58:54.346Z,8.30
2019-02-06T09:59:54.314Z,8.00
2019-02-06T10:00:54.294Z,7.70
2019-02-06T10:01:54.279Z,8.40
2019-02-06T10:02:54.242Z,8.90
2019-02-06T10:03:54.219Z,8.40
2019-02-06T10:04:54.194Z,8.20
2019-02-06T10:05:54.181Z,8.20
2019-02-06T10:06:54.503Z,8.10
2019-02-06T10:07:54.136Z,8.90
2019-02-06T10:08:54.103Z,8.20
2019-02-06T10:09:54.078Z,7.80
2019-02-06T10:10:54.105Z,8.90
2019-02-06T10:11:54.030Z,7.80
2019-02-06T10:12:54.011Z,8.30
2019-02-06T10:13:53.986Z,7.70
2019-02-06T10:14:53.960Z,8.30
2019-02-06T10:15:53.938Z,7.90
2019-02-06T10:16:53.914Z,9.30
2019-02-06T10:17:53.890Z,7.90
2019-02-06T10:18:53.867Z,8.70
2019-02-06T10:19:53.858Z,8.40
2019-02-06T10:20:53.817Z,8.40
2019-02-06T10:21:53.883Z,8.70
2019-02-06T10:22:53.771Z,8.20
2019-02-06T10:23:53.756Z,7.60
2019-02-06T10:24:53.725Z,8.60
2019-02-06T10:25:54.163Z,9.20
2019-02-06T10:26:53.683Z,8.30
2019-02-06T10:27:53.652Z,8.10
2019-02-06T10:28:53.636Z,8.00
2019-02-06T10:29:53.713Z,8.20
2019-02-06T10:30:53.582Z,8.00
2019-02-06T10:31:53.558Z,8.80
2019-02-06T10:32:53.534Z,8.10
2019-02-06T10:33:53.514Z,8.40
2019-02-06T10:34:53.491Z,8.40
2019-02-06T10:35:53.468Z,7.90
2019-02-06T10:36:53.450Z,8.90
2019-02-06T10:37:53.416Z,8.70
2019-02-06T10:38:53.394Z,7.50
2019-02-06T10:39:53.371Z,7.90
2019-02-06T10:40:53.353Z,8.10
2019-02-06T10:41:53.328Z,8.70
2019-02-06T10:42:53.298Z,8.00
2019-02-06T10:43:53.325Z,8.20
2019-02-06T10:44:53.254Z,7.40
2019-02-06T10:45:53.231Z,8.00
2019-02-06T10:46:53.327Z,8.30
2019-02-06T10:47:53.181Z,8.00
2019-02-06T10:48:53.168Z,7.50
2019-02-06T10:49:53.155Z,8.40
2019-02-06T10:50:53.111Z,7.70
2019-02-06T10:51:53.089Z,7.90
2019-02-06T10:52:53.071Z,7.90
2019-02-06T10:53:53.047Z,8.00
2019-02-06T10:54:53.017Z,8.20
2019-02-06T10:55:52.995Z,7.90
2019-02-06T10:56:52.973Z,8.20
2019-02-06T10:57:52.959Z,8.20
2019-02-06T10:58:52.937Z,7.90
2019-02-06T10:59:52.902Z,8.70
2019-02-06T11:00:52.877Z,8.30
2019-02-06T11:01:52.876Z,8.60
2019-02-06T11:02:52.871Z,7.50
2019-02-06T11:03:52.806Z,8.30
2019-02-06T11:04:52.790Z,7.80
2019-02-06T11:05:52.759Z,8.80
2019-02-06T11:06:52.736Z,8.10
2019-02-06T11:07:52.714Z,8.00
2019-02-06T11:08:52.748Z,7.30
2019-02-06T11:09:52.674Z,8.10
2019-02-06T11:10:52.642Z,7.40
2019-02-06T11:11:52.619Z,7.80
2019-02-06T11:12:52.602Z,8.00
2019-02-06T11:13:52.573Z,8.10
2019-02-06T11:14:52.564Z,8.00
2019-02-06T11:15:52.540Z,8.40
2019-02-06T11:16:52.506Z,7.80
2019-02-06T11:17:52.492Z,7.50
2019-02-06T11:18:52.455Z,7.80
2019-02-06T11:19:52.457Z,7.50
2019-02-06T11:20:52.424Z,7.40
2019-02-06T11:21:52.390Z,8.00
2019-02-06T11:22:52.364Z,7.70
2019-02-06T11:23:52.340Z,7.70
2019-02-06T11:24:52.318Z,7.30
2019-02-06T11:25:52.296Z,7.30
2019-02-06T11:26:52.273Z,7.90
2019-02-06T11:27:52.249Z,8.00
2019-02-06T11:28:52.228Z,7.70
2019-02-06T11:29:52.216Z,7.40
2019-02-06T11:30:52.181Z,7.80
2019-02-06T11:31:52.160Z,8.70
2019-02-06T11:32:52.135Z,7.80
2019-02-06T11:33:52.114Z,8.30
2019-02-06T11:34:52.100Z,7.50
2019-02-06T11:35:52.078Z,7.20
2019-02-06T11:36:52.045Z,7.60
2019-02-06T11:37:52.030Z,7.20
2019-02-06T11:38:52.198Z,7.60
2019-02-06T11:39:57.903Z,7.80
2019-02-06T11:40:51.954Z,8.10
2019-02-06T11:41:51.939Z,8.30
2019-02-06T11:42:51.909Z,8.10
2019-02-06T11:43:51.897Z,7.90
2019-02-06T11:44:51.873Z,8.40
2019-02-06T11:45:51.842Z,7.30
2019-02-06T11:46:51.820Z,8.20
2019-02-06T11:47:51.795Z,7.90
2019-02-06T11:48:51.774Z,8.10
2019-02-06T11:49:51.752Z,7.80
2019-02-06T11:50:51.737Z,7.80
2019-02-06T11:51:51.705Z,7.90
2019-02-06T11:52:51.701Z,7.60
2019-02-06T11:53:51.664Z,7.60
2019-02-06T11:54:51.638Z,6.90
2019-02-06T11:55:51.615Z,7.70
2019-02-06T11:56:51.598Z,7.50
2019-02-06T11:57:51.579Z,7.40
2019-02-06T11:58:51.550Z,7.20
2019-02-06T11:59:53.138Z,7.40
2019-02-06T12:00:51.505Z,8.40
2019-02-06T12:01:51.478Z,8.00
2019-02-06T12:02:51.458Z,7.70
2019-02-06T12:03:51.435Z,7.60
2019-02-06T12:04:51.418Z,7.00
2019-02-06T12:05:51.394Z,7.80
2019-02-06T12:06:51.369Z,8.80
2019-02-06T12:07:51.360Z,8.00
2019-02-06T12:08:51.325Z,7.30
2019-02-06T12:09:51.302Z,7.30
2019-02-06T12:10:51.287Z,7.90
2019-02-06T12:11:51.256Z,8.00
2019-02-06T12:12:51.235Z,7.80
2019-02-06T12:13:51.210Z,7.90
2019-02-06T12:14:51.188Z,8.60
2019-02-06T12:15:51.166Z,7.30
2019-02-06T12:16:51.143Z,7.40
2019-02-06T12:17:51.141Z,7.90
2019-02-06T12:18:51.100Z,7.40
2019-02-06T12:19:51.084Z,7.20
2019-02-06T12:20:51.061Z,7.50
2019-02-06T12:21:51.048Z,7.80
2019-02-06T12:22:51.008Z,8.00
2019-02-06T12:23:50.988Z,7.50
2019-02-06T12:24:50.967Z,7.50
2019-02-06T12:25:50.951Z,8.20
2019-02-06T12:26:50.921Z,8.00
2019-02-06T12:27:50.898Z,8.00
2019-02-06T12:28:50.878Z,7.70
2019-02-06T12:29:50.855Z,6.90
2019-02-06T12:30:50.837Z,7.40
2019-02-06T12:31:50.811Z,9.10
2019-02-06T12:32:52.228Z,7.60
2019-02-06T12:33:50.766Z,8.50
2019-02-06T12:34:50.864Z,8.20
2019-02-06T12:35:50.730Z,7.20
2019-02-06T12:36:50.728Z,7.80
2019-02-06T12:37:50.680Z,7.40
2019-02-06T12:38:53.702Z,6.90
2019-02-06T12:39:50.632Z,7.90
2019-02-06T12:40:50.618Z,8.10
2019-02-06T12:41:50.604Z,7.80
2019-02-06T12:42:50.574Z,7.30
2019-02-06T12:43:50.545Z,7.30
2019-02-06T12:44:50.532Z,7.50
2019-02-06T12:45:50.509Z,7.70
2019-02-06T12:46:50.478Z,7.50
2019-02-06T12:47:50.480Z,7.70
2019-02-06T12:48:50.443Z,7.90
2019-02-06T12:49:50.420Z,7.40
2019-02-06T12:50:50.389Z,7.60
2019-02-06T12:51:52.488Z,6.90
2019-02-06T12:52:50.346Z,7.20
2019-02-06T12:53:50.341Z,7.50
2019-02-06T12:54:50.314Z,6.80
2019-02-06T12:55:50.287Z,8.00
2019-02-06T12:56:50.267Z,7.10
2019-02-06T12:57:50.235Z,8.40
2019-02-06T12:58:50.224Z,8.20
2019-02-06T12:59:50.194Z,6.70
2019-02-06T13:00:50.170Z,7.90
2019-02-06T13:01:50.147Z,8.00
2019-02-06T13:02:50.128Z,7.10
2019-02-06T13:03:50.133Z,7.00
2019-02-06T13:04:50.089Z,6.90
2019-02-06T13:05:50.058Z,7.20
2019-02-06T13:06:50.040Z,7.40
2019-02-06T13:07:50.018Z,7.00